PWSweather.com
Personal Weather Stations
Station Observations
INORDPAS37
Bondues, BonduesFR 59910

BonduesBonduesFR 59910

Lat: 50.7, Lon: 3.09

Elevation: 102

Station Type: Netatmo

http://bondues.meteoamikuze.com

Latest ConditionsUpdated 7:03:00 PM GMT+01:01 Tuesday, Nov 12, 2019
Currently Today's Max Today's Min Today's Average
Temperature 42.1°F5.6°C 46.0°F7.8°C 37.2°F2.9°C 41.5°F5.3°C
Dew Point 33.3°F0.7°C 37.8°F3.2°C 30.0°F-1.1°C 33.6°F0.9°C
Winds 5.6 mph SW9.0 kmh SW 8.1 mph -13.0 kmh - - 5.3 mph 8.5 kmh
Wind Gusts 10.5 mph16.9 kmh 18.1 mph29.1 kmh - -
Humidity 76% 80% 76% 79%
Pressure 29.50 in999.0 mb 29.62 in1003.0 mb 29.49 in998.6 mb -
Precipitation - 0.01 in0.3 mm - -
Hour Temp Dew Point Humidity Winds Wind Gusts Pressure Precip Precip Rate Daily Precip Total
07:03 PM 42.1°F5.6°C 33.3°F0.7°C 76% 5.6 mph SW9.0 kmh SW 10.5 mph16.9 kmh 29.50 in999.0 mb 0.00 in0.0 mm 0.00 in0.0 mm 0.01 in0.3 mm
06:43 PM 42.3°F5.7°C 33.4°F0.8°C 76% 5.6 mph SW9.0 kmh SW 12.5 mph20.1 kmh 29.49 in998.6 mb 0.00 in0.0 mm 0.00 in0.0 mm 0.01 in0.3 mm
06:24 PM 42.8°F6.0°C 34.0°F1.1°C 76% 6.9 mph SW11.1 kmh SW 15.0 mph24.1 kmh 29.50 in999.0 mb 0.00 in0.0 mm 0.00 in0.0 mm 0.01 in0.3 mm
06:03 PM 43.2°F6.2°C 34.3°F1.3°C 76% 6.9 mph SW11.1 kmh SW 13.6 mph21.9 kmh 29.51 in999.3 mb 0.00 in0.0 mm 0.00 in0.0 mm 0.01 in0.3 mm
05:44 PM 43.0°F6.1°C 34.2°F1.2°C 76% 5.6 mph SW9.0 kmh SW 14.3 mph23.0 kmh 29.51 in999.3 mb 0.00 in0.0 mm 0.00 in0.0 mm 0.01 in0.3 mm
05:23 PM 43.2°F6.2°C 34.3°F1.3°C 76% 5.6 mph SW9.0 kmh SW 13.6 mph21.9 kmh 29.52 in999.7 mb 0.00 in0.0 mm 0.00 in0.0 mm 0.01 in0.3 mm
05:03 PM 43.7°F6.5°C 34.7°F1.5°C 76% 5.6 mph SW9.0 kmh SW 12.5 mph20.1 kmh 29.52 in999.7 mb 0.00 in0.0 mm 0.00 in0.0 mm 0.01 in0.3 mm
04:43 PM 44.1°F6.7°C 35.1°F1.7°C 76% 5.6 mph SW9.0 kmh SW 11.9 mph19.2 kmh 29.52 in999.7 mb 0.00 in0.0 mm 0.00 in0.0 mm 0.01 in0.3 mm
04:23 PM 44.4°F6.9°C 35.4°F1.9°C 76% 5.6 mph SW9.0 kmh SW 14.3 mph23.0 kmh 29.52 in999.7 mb 0.00 in0.0 mm 0.00 in0.0 mm 0.01 in0.3 mm
04:03 PM 44.8°F7.1°C 35.8°F2.1°C 76% 6.9 mph SW11.1 kmh SW 10.5 mph16.9 kmh 29.52 in999.7 mb 0.00 in0.0 mm 0.00 in0.0 mm 0.01 in0.3 mm
03:43 PM 45.0°F7.2°C 36.0°F2.2°C 76% 6.9 mph SW11.1 kmh SW 13.0 mph20.9 kmh 29.52 in999.7 mb 0.00 in0.0 mm 0.00 in0.0 mm 0.01 in0.3 mm
03:23 PM 45.0°F7.2°C 36.0°F2.2°C 76% 7.4 mph SW11.9 kmh SW 14.3 mph23.0 kmh 29.52 in999.7 mb 0.00 in0.0 mm 0.00 in0.0 mm 0.01 in0.3 mm
03:02 PM 45.0°F7.2°C 36.0°F2.2°C 76% 7.4 mph SW11.9 kmh SW 13.6 mph21.9 kmh 29.52 in999.7 mb 0.00 in0.0 mm 0.00 in0.0 mm 0.01 in0.3 mm
02:42 PM 45.3°F7.4°C 36.3°F2.4°C 76% 8.1 mph SW13.0 kmh SW 16.1 mph25.9 kmh 29.52 in999.7 mb 0.00 in0.0 mm 0.00 in0.0 mm 0.01 in0.3 mm
02:22 PM 45.5°F7.5°C 36.9°F2.7°C 77% 7.4 mph SW11.9 kmh SW 15.0 mph24.1 kmh 29.53 in1000.0 mb 0.00 in0.0 mm 0.00 in0.0 mm 0.01 in0.3 mm
02:01 PM 45.7°F7.6°C 37.0°F2.8°C 77% 7.4 mph SW11.9 kmh SW 15.0 mph24.1 kmh 29.53 in1000.0 mb 0.00 in0.0 mm 0.00 in0.0 mm 0.01 in0.3 mm
01:42 PM 46.0°F7.8°C 37.8°F3.2°C 78% 7.4 mph SW11.9 kmh SW 15.0 mph24.1 kmh 29.53 in1000.0 mb 0.00 in0.0 mm 0.00 in0.0 mm 0.01 in0.3 mm
01:26 PM 45.9°F7.7°C 37.6°F3.1°C 78% 5.6 mph SW9.0 kmh SW 14.3 mph23.0 kmh 29.53 in1000.0 mb 0.00 in0.0 mm 0.00 in0.0 mm 0.01 in0.3 mm
01:06 PM 45.7°F7.6°C 37.4°F3.0°C 78% 6.9 mph SW11.1 kmh SW 11.9 mph19.2 kmh 29.54 in1000.3 mb 0.00 in0.0 mm 0.00 in0.0 mm 0.01 in0.3 mm
12:45 PM 45.5°F7.5°C 37.6°F3.1°C 79% 6.9 mph SW11.1 kmh SW 12.5 mph20.1 kmh 29.54 in1000.3 mb 0.00 in0.0 mm 0.00 in0.0 mm 0.01 in0.3 mm
12:21 PM 45.3°F7.4°C 37.6°F3.1°C 79% 6.9 mph SW11.1 kmh SW 12.5 mph20.1 kmh 29.54 in1000.3 mb 0.00 in0.0 mm 0.00 in0.0 mm 0.01 in0.3 mm
12:00 PM 44.1°F6.7°C 36.7°F2.6°C 80% 6.9 mph SW11.1 kmh SW 12.5 mph20.1 kmh 29.55 in1000.7 mb 0.00 in0.0 mm 0.00 in0.0 mm 0.01 in0.3 mm
11:40 AM 43.2°F6.2°C 35.8°F2.1°C 80% 6.9 mph SW11.1 kmh SW 12.5 mph20.1 kmh 29.55 in1000.7 mb 0.00 in0.0 mm 0.00 in0.0 mm 0.01 in0.3 mm
11:20 AM 42.3°F5.7°C 34.9°F1.6°C 80% 4.9 mph SW7.9 kmh SW 11.2 mph18.0 kmh 29.56 in1001.0 mb 0.00 in0.0 mm 0.00 in0.0 mm 0.01 in0.3 mm
10:59 AM 42.1°F5.6°C 34.7°F1.5°C 80% 4.9 mph SW7.9 kmh SW 9.4 mph15.1 kmh 29.55 in1000.7 mb 0.00 in0.0 mm 0.00 in0.0 mm 0.01 in0.3 mm
10:48 AM 41.7°F5.4°C 34.3°F1.3°C 80% 4.9 mph SW7.9 kmh SW 11.2 mph18.0 kmh 29.55 in1000.7 mb 0.00 in0.0 mm 0.00 in0.0 mm 0.01 in0.3 mm
10:29 AM 40.6°F4.8°C 33.3°F0.7°C 80% 4.3 mph SW6.9 kmh SW 8.7 mph14.0 kmh 29.55 in1000.7 mb 0.00 in0.0 mm 0.00 in0.0 mm 0.01 in0.3 mm
10:08 AM 39.0°F3.9°C 31.6°F-0.2°C 80% 4.3 mph SW6.9 kmh SW 8.1 mph13.0 kmh 29.55 in1000.7 mb 0.00 in0.0 mm 0.00 in0.0 mm 0.01 in0.3 mm
09:48 AM 37.9°F3.3°C 30.7°F-0.7°C 80% 3.8 mph SW6.1 kmh SW 8.1 mph13.0 kmh 29.55 in1000.7 mb 0.00 in0.0 mm 0.00 in0.0 mm 0.01 in0.3 mm
09:27 AM 37.8°F3.2°C 30.6°F-0.8°C 80% 3.8 mph SW6.1 kmh SW 7.4 mph11.9 kmh 29.55 in1000.7 mb 0.00 in0.0 mm 0.00 in0.0 mm 0.01 in0.3 mm
09:07 AM 37.8°F3.2°C 30.6°F-0.8°C 80% 3.8 mph SW6.1 kmh SW 9.8 mph15.8 kmh 29.55 in1000.7 mb 0.00 in0.0 mm 0.00 in0.0 mm 0.01 in0.3 mm
08:47 AM 37.6°F3.1°C 30.4°F-0.9°C 80% 3.8 mph SW6.1 kmh SW 6.9 mph11.1 kmh 29.55 in1000.7 mb 0.00 in0.0 mm 0.00 in0.0 mm 0.01 in0.3 mm
08:26 AM 37.2°F2.9°C 30.0°F-1.1°C 80% 3.8 mph SW6.1 kmh SW 8.1 mph13.0 kmh 29.54 in1000.3 mb 0.00 in0.0 mm 0.00 in0.0 mm 0.01 in0.3 mm
08:01 AM 37.6°F3.1°C 30.4°F-0.9°C 80% 3.8 mph SW6.1 kmh SW 8.1 mph13.0 kmh 29.54 in1000.3 mb 0.00 in0.0 mm 0.00 in0.0 mm 0.01 in0.3 mm
07:40 AM 37.8°F3.2°C 30.6°F-0.8°C 80% 2.5 mph WSW4.0 kmh WSW 4.3 mph6.9 kmh 29.56 in1001.0 mb 0.00 in0.0 mm 0.00 in0.0 mm 0.01 in0.3 mm
07:21 AM 38.3°F3.5°C 31.1°F-0.5°C 80% 3.8 mph SW6.1 kmh SW 8.7 mph14.0 kmh 29.55 in1000.7 mb 0.00 in0.0 mm 0.00 in0.0 mm 0.01 in0.3 mm
07:00 AM 38.8°F3.8°C 31.5°F-0.3°C 80% 5.6 mph SW9.0 kmh SW 8.7 mph14.0 kmh 29.56 in1001.0 mb 0.00 in0.0 mm 0.00 in0.0 mm 0.01 in0.3 mm
06:40 AM 39.2°F4.0°C 31.8°F-0.1°C 80% 4.3 mph SW6.9 kmh SW 8.7 mph14.0 kmh 29.55 in1000.7 mb 0.00 in0.0 mm 0.00 in0.0 mm 0.01 in0.3 mm
06:20 AM 39.7°F4.3°C 32.4°F0.2°C 80% 4.9 mph WSW7.9 kmh WSW 10.5 mph16.9 kmh 29.56 in1001.0 mb 0.00 in0.0 mm 0.01 in0.3 mm 0.01 in0.3 mm
06:00 AM 39.9°F4.4°C 32.5°F0.3°C 80% 4.3 mph W6.9 kmh W 9.4 mph15.1 kmh 29.57 in1001.4 mb 0.00 in0.0 mm 0.00 in0.0 mm 0.00 in0.0 mm
05:39 AM 39.9°F4.4°C 32.5°F0.3°C 80% 4.3 mph WSW6.9 kmh WSW 8.7 mph14.0 kmh 29.56 in1001.0 mb 0.00 in0.0 mm 0.00 in0.0 mm 0.00 in0.0 mm
05:29 AM 39.9°F4.4°C 32.5°F0.3°C 80% 4.9 mph SW7.9 kmh SW 12.5 mph20.1 kmh 29.56 in1001.0 mb 0.00 in0.0 mm 0.00 in0.0 mm 0.00 in0.0 mm
05:09 AM 39.9°F4.4°C 32.5°F0.3°C 80% 4.9 mph SW7.9 kmh SW 9.4 mph15.1 kmh 29.56 in1001.0 mb 0.00 in0.0 mm 0.00 in0.0 mm 0.00 in0.0 mm
04:49 AM 39.9°F4.4°C 32.5°F0.3°C 80% 6.9 mph SW11.1 kmh SW 15.0 mph24.1 kmh 29.57 in1001.4 mb 0.00 in0.0 mm 0.00 in0.0 mm 0.00 in0.0 mm
04:28 AM 39.7°F4.3°C 32.4°F0.2°C 80% 4.3 mph SW6.9 kmh SW 8.7 mph14.0 kmh 29.57 in1001.4 mb 0.00 in0.0 mm 0.00 in0.0 mm 0.00 in0.0 mm
04:08 AM 39.6°F4.2°C 32.2°F0.1°C 80% 4.3 mph SW6.9 kmh SW 14.3 mph23.0 kmh 29.58 in1001.7 mb 0.00 in0.0 mm 0.00 in0.0 mm 0.00 in0.0 mm
03:48 AM 39.6°F4.2°C 32.2°F0.1°C 80% 5.6 mph SW9.0 kmh SW 11.2 mph18.0 kmh 29.58 in1001.7 mb 0.00 in0.0 mm 0.00 in0.0 mm 0.00 in0.0 mm
03:27 AM 39.6°F4.2°C 32.2°F0.1°C 80% 4.9 mph SW7.9 kmh SW 9.8 mph15.8 kmh 29.58 in1001.7 mb 0.00 in0.0 mm 0.00 in0.0 mm 0.00 in0.0 mm
03:08 AM 39.7°F4.3°C 32.4°F0.2°C 80% 4.9 mph SW7.9 kmh SW 9.8 mph15.8 kmh 29.59 in1002.0 mb 0.00 in0.0 mm 0.00 in0.0 mm 0.00 in0.0 mm
02:47 AM 39.9°F4.4°C 32.2°F0.1°C 79% 4.3 mph SW6.9 kmh SW 11.2 mph18.0 kmh 29.58 in1001.7 mb 0.00 in0.0 mm 0.00 in0.0 mm 0.00 in0.0 mm
02:27 AM 39.9°F4.4°C 32.2°F0.1°C 79% 4.9 mph SW7.9 kmh SW 18.1 mph29.1 kmh 29.60 in1002.4 mb 0.00 in0.0 mm 0.00 in0.0 mm 0.00 in0.0 mm
02:03 AM 40.1°F4.5°C 32.4°F0.2°C 79% 3.8 mph SW6.1 kmh SW 8.7 mph14.0 kmh 29.60 in1002.4 mb 0.00 in0.0 mm 0.00 in0.0 mm 0.00 in0.0 mm
01:42 AM 40.6°F4.8°C 32.9°F0.5°C 79% 4.3 mph SW6.9 kmh SW 9.4 mph15.1 kmh 29.60 in1002.4 mb 0.00 in0.0 mm 0.00 in0.0 mm 0.00 in0.0 mm
01:22 AM 40.8°F4.9°C 33.1°F0.6°C 79% 4.3 mph SW6.9 kmh SW 13.6 mph21.9 kmh 29.60 in1002.4 mb 0.00 in0.0 mm 0.01 in0.3 mm 0.00 in0.0 mm
01:01 AM 40.6°F4.8°C 32.9°F0.5°C 79% 4.9 mph SW7.9 kmh SW 11.2 mph18.0 kmh 29.61 in1002.7 mb 0.00 in0.0 mm 0.00 in0.0 mm 0.00 in0.0 mm
12:42 AM 40.6°F4.8°C 32.9°F0.5°C 79% 3.8 mph SW6.1 kmh SW 7.4 mph11.9 kmh 29.61 in1002.7 mb 0.00 in0.0 mm 0.00 in0.0 mm 0.00 in0.0 mm
12:21 AM 40.8°F4.9°C 33.1°F0.6°C 79% 4.9 mph SW7.9 kmh SW 11.2 mph18.0 kmh 29.62 in1003.0 mb 0.00 in0.0 mm 0.00 in0.0 mm 0.00 in0.0 mm
12:01 AM 40.3°F4.6°C 32.5°F0.3°C 79% 5.6 mph SW9.0 kmh SW 11.9 mph19.2 kmh 29.61 in1002.7 mb 0.00 in0.0 mm 0.00 in0.0 mm 0.00 in0.0 mm